| time (UTC) | temp C | wind direction | speed KPH | gust KPH | rain 1hr cm | rain 24hr cm | rain mn cm | humidity % | barometer mb |
| 20260508054305 | 9 | 68 | 3.2 | 4.8 | 0.00 | 0.05 | 0.00 | 73 | 1010.1 |
| 20260508053805 | 7 | 77 | 4.8 | 8.0 | 0.00 | 0.05 | 0.00 | 61 | 1010.1 |
| 20260508053305 | 6 | 21 | 1.6 | 8.0 | 0.00 | 0.05 | 0.00 | 73 | 1010.0 |
| 20260508052806 | 7 | 109 | 3.2 | 8.0 | 0.00 | 0.05 | 0.00 | 72 | 1010.2 |
| 20260508052307 | 7 | 46 | 4.8 | 9.7 | 0.00 | 0.05 | 0.00 | 72 | 1015.3 |
| 20260508051806 | 7 | 39 | 1.6 | 9.7 | 0.00 | 0.05 | 0.00 | 71 | 1010.1 |
| 20260508051306 | 7 | 50 | 4.8 | 9.7 | 0.00 | 0.05 | 0.00 | 67 | 1010.2 |
| 20260508050805 | 7 | 209 | 4.8 | 11.3 | 0.00 | 0.05 | 0.00 | 64 | 1010.0 |
| 20260508050305 | 8 | 329 | 3.2 | 11.3 | 0.00 | 0.05 | 0.00 | 67 | 1010.4 |
| 20260508045805 | 8 | 278 | 6.4 | 11.3 | 0.00 | 0.05 | 0.03 | 64 | 1010.1 |
| 20260508045307 | 7 | 229 | 3.2 | 25.7 | 0.00 | 0.05 | 0.03 | 62 | 1010.1 |
| 20260508044805 | 9 | 180 | 8.0 | 12.9 | 0.00 | 0.05 | 0.03 | 58 | 1010.1 |
| 20260508044306 | 9 | 303 | 4.8 | 12.9 | 0.00 | 0.05 | 0.03 | 51 | 1010.2 |
| 20260508043806 | 9 | 0 | 3.2 | 12.9 | 0.00 | 0.05 | 0.03 | 56 | 1010.1 |
| 20260508043305 | 8 | 236 | 3.2 | 11.3 | 0.00 | 0.05 | 0.03 | 54 | 1010.2 |
| 20260508042805 | 8 | 197 | 4.8 | 14.5 | 0.00 | 0.05 | 0.03 | 52 | 1010.0 |
| 20260508042307 | 10 | 132 | 6.4 | 12.9 | 0.00 | 0.05 | 0.03 | 50 | 1010.0 |
| 20260508041805 | 10 | 281 | 3.2 | 12.9 | 0.00 | 0.05 | 0.03 | 49 | 1010.2 |
| 20260508041305 | 9 | 300 | 4.8 | 12.9 | 0.00 | 0.05 | 0.03 | 49 | 1010.1 |
| 20260508040805 | 9 | 282 | 8.0 | 14.5 | 0.00 | 0.05 | 0.03 | 49 | 1019.0 |
| 20260508035805 | 8 | 214 | 9.7 | 14.5 | 0.00 | 0.05 | 0.03 | 44 | 1013.7 |
| 20260508035306 | 10 | 313 | 8.0 | 11.3 | 0.00 | 0.05 | 0.03 | 50 | 1010.0 |
| 20260508034805 | 10 | 94 | 3.2 | 9.7 | 0.00 | 0.05 | 0.03 | 50 | 1010.0 |
| 20260508034305 | 9 | 349 | 1.6 | 8.0 | 0.00 | 0.05 | 0.03 | 51 | 1009.9 |
| 20260508033805 | 9 | 297 | 3.2 | 16.1 | 0.00 | 0.05 | 0.03 | 50 | 1009.8 |
| 20260508032805 | 8 | 143 | 3.2 | 12.9 | 0.00 | 0.05 | 0.03 | 50 | 1009.7 |
| 20260508032306 | 10 | 42 | 3.2 | 8.0 | 0.00 | 0.05 | 0.03 | 37 | 1017.3 |
| 20260508031805 | 10 | 125 | 1.6 | 4.8 | 0.00 | 0.05 | 0.03 | 50 | 1009.8 |
| 20260508031305 | 10 | 32 | 1.6 | 8.0 | 0.00 | 0.05 | 0.03 | 36 | 1017.7 |
| 20260508030805 | 10 | 236 | 1.6 | 8.0 | 0.00 | 0.05 | 0.03 | 49 | 1009.8 |
| 20260508030305 | 9 | 233 | 3.2 | 8.0 | 0.00 | 0.05 | 0.03 | 48 | 1009.6 |
| 20260508025804 | 9 | 239 | 1.6 | 4.8 | 0.00 | 0.05 | 0.03 | 47 | 1009.6 |
| 20260508025306 | 10 | 320 | 3.2 | 8.0 | 0.00 | 0.05 | 0.03 | 47 | 1009.6 |
| 20260508024805 | 10 | 210 | 4.8 | 9.7 | 0.00 | 0.05 | 0.03 | 47 | 1009.6 |
| 20260508024305 | 10 | 255 | 1.6 | 11.3 | 0.00 | 0.05 | 0.03 | 47 | 1009.4 |
| 20260508023806 | 10 | 292 | 3.2 | 9.7 | 0.00 | 0.05 | 0.03 | 47 | 1009.4 |
| 20260508023305 | 10 | 258 | 3.2 | 9.7 | 0.00 | 0.05 | 0.03 | 47 | 1009.3 |
| 20260508022805 | 10 | 265 | 4.8 | 9.7 | 0.00 | 0.05 | 0.03 | 46 | 1009.2 |
| 20260508022307 | 11 | 307 | 4.8 | 8.0 | 0.00 | 0.05 | 0.03 | 36 | 1016.9 |
| 20260508021806 | 10 | 132 | 3.2 | 4.8 | 0.00 | 0.05 | 0.03 | 47 | 1009.2 |
| 20260508021305 | 10 | 291 | 3.2 | 8.0 | 0.00 | 0.05 | 0.03 | 35 | 1017.7 |
| 20260508020805 | 10 | 230 | 3.2 | 8.0 | 0.00 | 0.05 | 0.03 | 46 | 1009.1 |
| 20260508020304 | 10 | 220 | 4.8 | 8.0 | 0.00 | 0.05 | 0.03 | 40 | 1013.7 |
| 20260508015805 | 10 | 287 | 3.2 | 8.0 | 0.00 | 0.05 | 0.03 | 44 | 1009.0 |
| 20260508015306 | 11 | 254 | 3.2 | 8.0 | 0.00 | 0.05 | 0.03 | 44 | 1009.1 |
| 20260508014805 | 11 | 17 | 1.6 | 9.7 | 0.00 | 0.05 | 0.03 | 43 | 1008.9 |
| 20260508013805 | 11 | 305 | 4.8 | 9.7 | 0.00 | 0.05 | 0.03 | 44 | 1009.1 |
| 20260508013305 | 11 | 347 | 3.2 | 9.7 | 0.00 | 0.05 | 0.03 | 43 | 1008.9 |
| 20260508012805 | 12 | 280 | 4.8 | 14.5 | 0.00 | 0.05 | 0.03 | 42 | 1008.9 |
| 20260508012307 | 11 | 166 | 3.2 | 19.3 | 0.00 | 0.05 | 0.03 | 42 | 1008.8 |
| 20260508011804 | 11 | 156 | 4.8 | 19.3 | 0.00 | 0.05 | 0.03 | 36 | 1013.0 |
| 20260508011305 | 12 | 243 | 4.8 | 12.9 | 0.00 | 0.05 | 0.03 | 42 | 1008.8 |
| 20260508010805 | 11 | 182 | 3.2 | 8.0 | 0.00 | 0.05 | 0.03 | 42 | 1008.6 |
| 20260508010306 | 12 | 29 | 4.8 | 12.9 | 0.00 | 0.05 | 0.03 | 42 | 1008.7 |
| 20260508005805 | 16 | 248 | 3.2 | 8.0 | 0.00 | 0.05 | 0.03 | 42 | 1008.7 |
| 20260508005306 | 16 | 213 | 3.2 | 14.5 | 0.00 | 0.05 | 0.03 | 42 | 1008.7 |
| 20260508004805 | 17 | 177 | 1.6 | 14.5 | 0.00 | 0.05 | 0.03 | 42 | 1008.7 |
| 20260508004305 | 16 | 239 | 3.2 | 14.5 | 0.00 | 0.05 | 0.03 | 41 | 1008.8 |
| 20260508003805 | 16 | 198 | 4.8 | 22.5 | 0.00 | 0.05 | 0.03 | 41 | 1008.7 |
| 20260508003305 | 16 | 179 | 8.0 | 22.5 | 0.00 | 0.05 | 0.03 | 39 | 1008.8 |
| 20260508002805 | 16 | 257 | 3.2 | 12.9 | 0.00 | 0.05 | 0.03 | 40 | 1008.7 |
| 20260508002307 | 16 | 291 | 3.2 | 16.1 | 0.00 | 0.05 | 0.03 | 39 | 1008.4 |
| 20260508001305 | 16 | 162 | 17.7 | 37.0 | 0.00 | 0.08 | 0.03 | 37 | 1008.4 |
| 20260508000805 | 17 | 269 | 4.8 | 12.9 | 0.00 | 0.08 | 0.03 | 39 | 1012.8 |
| 20260508000305 | 12 | 189 | 4.8 | 16.1 | 0.00 | 0.08 | 0.03 | 39 | 1008.4 |
| 20260507235805 | 17 | 296 | 8.0 | 29.0 | 0.00 | 0.08 | 0.03 | 38 | 1008.6 |
| 20260507235307 | 16 | 109 | 8.0 | 33.8 | 0.00 | 0.08 | 0.03 | 37 | 1008.5 |
| 20260507234805 | 17 | 228 | 14.5 | 33.8 | 0.00 | 0.10 | 0.03 | 35 | 1012.0 |
| 20260507234305 | 16 | 251 | 9.7 | 33.8 | 0.00 | 0.10 | 0.03 | 36 | 1008.4 |
| 20260507233805 | 17 | 173 | 14.5 | 33.8 | 0.00 | 0.10 | 0.03 | 36 | 1012.3 |
| 20260507233305 | 17 | 217 | 11.3 | 22.5 | 0.00 | 0.13 | 0.03 | 34 | 1008.3 |
| 20260507232805 | 17 | 190 | 8.0 | 37.0 | 0.00 | 0.13 | 0.03 | 33 | 1008.4 |
| 20260507232306 | 16 | 175 | 6.4 | 22.5 | 0.00 | 0.15 | 0.03 | 36 | 1008.4 |
| 20260507231804 | 17 | 114 | 8.0 | 20.9 | 0.00 | 0.15 | 0.03 | 31 | 1008.5 |
| 20260507231305 | 17 | 223 | 6.4 | 25.7 | 0.00 | 0.15 | 0.03 | 38 | 1008.5 |
| 20260507230805 | 12 | 73 | 4.8 | 11.3 | 0.00 | 0.18 | 0.03 | 34 | 1008.6 |
| 20260507225805 | 17 | 199 | 11.3 | 24.1 | 0.00 | 0.20 | 0.03 | 38 | 1008.7 |
| 20260507225306 | 17 | 178 | 6.4 | 25.7 | 0.00 | 0.23 | 0.03 | 34 | 1017.2 |
| 20260507224304 | 16 | 284 | 9.7 | 25.7 | 0.00 | 0.25 | 0.03 | 36 | 1008.6 |
| 20260507223804 | 17 | 147 | 12.9 | 25.7 | 0.00 | 0.25 | 0.03 | 36 | 1008.7 |
| 20260507223305 | 17 | 174 | 6.4 | 22.5 | 0.00 | 0.28 | 0.03 | 36 | 1008.7 |
| 20260507222804 | 17 | 297 | 11.3 | 22.5 | 0.00 | 0.28 | 0.03 | 27 | 1017.8 |
| 20260507222306 | 17 | 95 | 6.4 | 20.9 | 0.00 | 0.30 | 0.03 | 39 | 1008.6 |
| 20260507221805 | 17 | 319 | 9.7 | 20.9 | 0.00 | 0.30 | 0.03 | 40 | 1008.7 |
| 20260507220305 | 17 | 150 | 8.0 | 33.8 | 0.00 | 0.36 | 0.03 | 27 | 1017.8 |
| 20260507215805 | 17 | 212 | 11.3 | 29.0 | 0.00 | 0.38 | 0.03 | 39 | 1008.9 |
| 20260507215306 | 17 | 134 | 6.4 | 29.0 | 0.00 | 0.38 | 0.03 | 31 | 1014.8 |
| 20260507214305 | 11 | 95 | 8.0 | 19.3 | 0.00 | 0.38 | 0.03 | 45 | 1009.2 |
| 20260507213305 | 16 | 108 | 1.6 | 16.1 | 0.00 | 0.38 | 0.03 | 44 | 1009.3 |
| 20260507212805 | 16 | 66 | 8.0 | 19.3 | 0.00 | 0.41 | 0.03 | 44 | 1009.3 |
| 20260507212307 | 16 | 63 | 4.8 | 14.5 | 0.00 | 0.41 | 0.03 | 44 | 1009.4 |
| 20260507211805 | 17 | 82 | 9.7 | 16.1 | 0.00 | 0.41 | 0.03 | 42 | 1009.7 |
| 20260507211305 | 11 | 175 | 3.2 | 25.7 | 0.00 | 0.41 | 0.03 | 39 | 1009.5 |
| 20260507210804 | 17 | 152 | 9.7 | 25.7 | 0.00 | 0.41 | 0.03 | 32 | 1013.9 |
| 20260507210305 | 17 | 174 | 6.4 | 20.9 | 0.00 | 0.41 | 0.03 | 39 | 1009.6 |
| 20260507205306 | 16 | 165 | 9.7 | 25.7 | 0.00 | 0.41 | 0.03 | 39 | 1009.6 |
| 20260507204804 | 16 | 171 | 9.7 | 19.3 | 0.00 | 0.41 | 0.03 | 39 | 1009.6 |
| 20260507204306 | 16 | 231 | 3.2 | 16.1 | 0.00 | 0.43 | 0.03 | 40 | 1009.6 |
| 20260507203805 | 16 | 155 | 3.2 | 16.1 | 0.00 | 0.43 | 0.03 | 39 | 1009.8 |
| 20260507202306 | 11 | 216 | 4.8 | 20.9 | 0.00 | 0.43 | 0.03 | 40 | 1010.0 |
| 20260507201804 | 16 | 23 | 9.7 | 25.7 | 0.00 | 0.46 | 0.03 | 40 | 1010.2 |
| 20260507201304 | 16 | 156 | 11.3 | 33.8 | 0.00 | 0.46 | 0.03 | 40 | 1010.2 |
| 20260507200805 | 16 | 125 | 11.3 | 20.9 | 0.00 | 0.46 | 0.03 | 39 | 1010.1 |
| 20260507200304 | 16 | 180 | 8.0 | 19.3 | 0.00 | 0.46 | 0.03 | 40 | 1009.9 |
| 20260507195306 | 13 | 187 | 12.9 | 33.8 | 0.00 | 0.46 | 0.03 | 41 | 1020.3 |
| 20260507194304 | 13 | 164 | 11.3 | 46.7 | 0.03 | 0.48 | 0.03 | 41 | 1010.2 |
| 20260507193804 | 13 | 159 | 16.1 | 35.4 | 0.03 | 0.48 | 0.03 | 41 | 1010.2 |
| 20260507193304 | 13 | 190 | 9.7 | 27.4 | 0.03 | 0.48 | 0.03 | 41 | 1010.3 |
| 20260507191804 | 13 | 196 | 11.3 | 35.4 | 0.03 | 0.51 | 0.03 | 43 | 1010.6 |
| 20260507191305 | 13 | 180 | 16.1 | 35.4 | 0.03 | 0.51 | 0.03 | 47 | 1010.6 |
| 20260507190805 | 13 | 186 | 14.5 | 37.0 | 0.03 | 0.51 | 0.03 | 43 | 1014.3 |
| 20260507190304 | 11 | 171 | 8.0 | 33.8 | 0.03 | 0.51 | 0.03 | 43 | 1010.6 |
| 20260507185805 | 11 | 164 | 16.1 | 32.2 | 0.03 | 0.51 | 0.03 | 41 | 1010.7 |
| 20260507185306 | 10 | 200 | 8.0 | 19.3 | 0.03 | 0.51 | 0.03 | 44 | 1010.5 |
| 20260507184806 | 10 | 246 | 9.7 | 19.3 | 0.03 | 0.53 | 0.03 | 42 | 1010.8 |
| 20260507183306 | 10 | 165 | 4.8 | 24.1 | 0.00 | 0.51 | 0.03 | 46 | 1010.8 |
| 20260507182806 | 10 | 198 | 11.3 | 32.2 | 0.00 | 0.51 | 0.03 | 46 | 1010.9 |
| 20260507181806 | 10 | 159 | 17.7 | 37.0 | 0.00 | 0.51 | 0.03 | 46 | 1010.9 |
| 20260507181306 | 10 | 168 | 16.1 | 27.4 | 0.00 | 0.51 | 0.03 | 45 | 1011.2 |
| 20260507180806 | 8 | 199 | 14.5 | 27.4 | 0.00 | 0.51 | 0.03 | 45 | 1015.8 |
| 20260507180306 | 10 | 159 | 8.0 | 20.9 | 0.00 | 0.61 | 0.03 | 40 | 1011.1 |
| 20260507175806 | 8 | 170 | 8.0 | 20.9 | 0.00 | 0.61 | 0.03 | 45 | 1011.2 |
| 20260507175307 | 8 | 171 | 4.8 | 19.3 | 0.00 | 0.61 | 0.03 | 46 | 1011.2 |
| 20260507174806 | 8 | 157 | 8.0 | 19.3 | 0.00 | 0.61 | 0.03 | 42 | 1021.3 |
| 20260507174306 | 8 | 173 | 6.4 | 19.3 | 0.00 | 0.61 | 0.03 | 49 | 1011.3 |
| 20260507173805 | 8 | 160 | 8.0 | 14.5 | 0.00 | 0.61 | 0.03 | 48 | 1011.4 |
| 20260507173306 | 8 | 204 | 6.4 | 19.3 | 0.00 | 0.61 | 0.03 | 39 | 1011.5 |
| 20260507172806 | 8 | 158 | 8.0 | 16.1 | 0.00 | 0.64 | 0.03 | 49 | 1011.4 |
| 20260507172307 | 8 | 179 | 4.8 | 14.5 | 0.00 | 0.64 | 0.03 | 49 | 1020.9 |
| 20260507171805 | 8 | 163 | 4.8 | 14.5 | 0.00 | 0.64 | 0.03 | 45 | 1011.4 |
| 20260507171305 | 8 | 185 | 4.8 | 14.5 | 0.00 | 0.64 | 0.03 | 45 | 1021.1 |
| 20260507170805 | 8 | 136 | 9.7 | 14.5 | 0.00 | 0.64 | 0.03 | 45 | 1011.3 |
| 20260507165805 | 7 | 193 | 4.8 | 11.3 | 0.00 | 0.71 | 0.03 | 46 | 1011.6 |
| 20260507165306 | 6 | 211 | 4.8 | 11.3 | 0.00 | 0.71 | 0.03 | 49 | 1011.6 |
| 20260507164805 | 6 | 199 | 4.8 | 14.5 | 0.03 | 0.71 | 0.03 | 48 | 1011.8 |
| 20260507164306 | 7 | 197 | 3.2 | 14.5 | 0.03 | 0.71 | 0.03 | 47 | 1011.8 |
| 20260507163806 | 6 | 217 | 1.6 | 11.3 | 0.03 | 0.71 | 0.03 | 46 | 1011.9 |
| 20260507163305 | 6 | 51 | 6.4 | 11.3 | 0.03 | 0.71 | 0.03 | 47 | 1019.0 |
| 20260507162805 | 6 | 74 | 4.8 | 8.0 | 0.03 | 0.71 | 0.03 | 46 | 1011.9 |
| 20260507162307 | 6 | 195 | 3.2 | 8.0 | 0.03 | 0.71 | 0.03 | 50 | 1017.6 |
| 20260507161805 | 6 | 51 | 4.8 | 8.0 | 0.03 | 0.71 | 0.03 | 47 | 1011.8 |
| 20260507161305 | 5 | 258 | 3.2 | 8.0 | 0.03 | 0.71 | 0.03 | 48 | 1012.1 |
| 20260507160805 | 6 | 61 | 1.6 | 8.0 | 0.03 | 0.71 | 0.03 | 48 | 1012.2 |
| 20260507155805 | 4 | 231 | 3.2 | 8.0 | 0.03 | 0.71 | 0.03 | 51 | 1012.4 |
| 20260507155307 | 3 | 185 | 3.2 | 11.3 | 0.00 | 0.69 | 0.00 | 53 | 1012.7 |
| 20260507154304 | 3 | 108 | 3.2 | 4.8 | 0.00 | 0.69 | 0.00 | 55 | 1012.8 |
| 20260507153806 | 2 | 86 | 1.6 | 12.9 | 0.00 | 0.69 | 0.00 | 53 | 1012.9 |
| 20260507153305 | 3 | 21 | 4.8 | 8.0 | 0.00 | 0.69 | 0.00 | 53 | 1024.7 |
| 20260507152306 | 3 | 70 | 4.8 | 9.7 | 0.00 | 0.69 | 0.00 | 57 | 1013.2 |
| 20260507151804 | 0 | 38 | 6.4 | 9.7 | 0.00 | 0.69 | 0.00 | 59 | 1013.3 |
| 20260507150804 | 3 | 62 | 1.6 | 3.2 | 0.00 | 0.69 | 0.00 | 60 | 1013.5 |
| 20260507150304 | 2 | 54 | 1.6 | 3.2 | 0.00 | 0.69 | 0.00 | 55 | 1013.5 |
| 20260507145306 | -1 | 28 | 1.6 | 8.0 | 0.00 | 0.69 | 0.00 | 66 | 1013.6 |
| 20260507144804 | -1 | 60 | 3.2 | 4.8 | 0.00 | 0.69 | 0.00 | 66 | 1013.6 |
| 20260507144304 | -1 | 22 | 3.2 | 4.8 | 0.00 | 0.69 | 0.00 | 67 | 1013.6 |
| 20260507143303 | -1 | 224 | 0.0 | 1.6 | 0.00 | 0.69 | 0.00 | 68 | 1013.7 |
| 20260507142804 | -1 | 257 | 0.0 | 3.2 | 0.00 | 0.69 | 0.00 | 69 | 1013.5 |
| 20260507142306 | -1 | 242 | 1.6 | 8.0 | 0.00 | 0.69 | 0.00 | 70 | 1013.6 |
| 20260507141804 | -1 | 205 | 0.0 | 3.2 | 0.00 | 0.69 | 0.00 | 70 | 1025.3 |
| 20260507141304 | -2 | 355 | 1.6 | 3.2 | 0.00 | 0.69 | 0.00 | 70 | 1013.7 |
| 20260507140805 | -1 | 60 | 0.0 | 8.0 | 0.00 | 0.69 | 0.00 | 71 | 1013.7 |
| 20260507140305 | -2 | 47 | 4.8 | 8.0 | 0.00 | 0.69 | 0.00 | 70 | 1025.1 |
| 20260507135804 | -2 | 46 | 3.2 | 4.8 | 0.00 | 0.71 | 0.00 | 71 | 1013.6 |
| 20260507135306 | -2 | 336 | 1.6 | 8.0 | 0.00 | 0.71 | 0.00 | 71 | 1013.9 |
| 20260507134803 | -2 | 55 | 4.8 | 8.0 | 0.00 | 0.71 | 0.00 | 72 | 1013.7 |
| 20260507134304 | -3 | 48 | 3.2 | 8.0 | 0.00 | 0.71 | 0.00 | 83 | 1013.5 |
| 20260507133804 | -3 | 41 | 4.8 | 8.0 | 0.00 | 0.71 | 0.00 | 73 | 1013.6 |
| 20260507133304 | -3 | 61 | 4.8 | 8.0 | 0.00 | 0.71 | 0.00 | 74 | 1013.7 |
| 20260507132805 | -3 | 68 | 4.8 | 9.7 | 0.00 | 0.71 | 0.00 | 74 | 1013.6 |
| 20260507132307 | -3 | 61 | 4.8 | 8.0 | 0.00 | 0.71 | 0.00 | 76 | 1013.8 |
| 20260507131805 | -4 | 63 | 4.8 | 8.0 | 0.00 | 0.71 | 0.00 | 75 | 1013.5 |
| 20260507130803 | -4 | 69 | 6.4 | 14.5 | 0.00 | 0.71 | 0.00 | 76 | 1013.7 |
| 20260507130304 | -4 | 47 | 8.0 | 9.7 | 0.00 | 0.71 | 0.00 | 77 | 1013.7 |
| 20260507125804 | -4 | 54 | 4.8 | 14.5 | 0.00 | 0.79 | 0.00 | 82 | 1013.6 |
| 20260507125307 | -4 | 62 | 6.4 | 14.5 | 0.00 | 0.79 | 0.00 | 77 | 1013.5 |
| 20260507124804 | -5 | 48 | 6.4 | 12.9 | 0.00 | 0.79 | 0.00 | 77 | 1013.5 |
| 20260507123805 | -5 | 63 | 4.8 | 12.9 | 0.00 | 0.79 | 0.00 | 77 | 1013.3 |
| 20260507123304 | -4 | 61 | 6.4 | 12.9 | 0.00 | 0.79 | 0.00 | 77 | 1023.0 |
| 20260507122804 | -5 | 25 | 4.8 | 12.9 | 0.00 | 0.79 | 0.00 | 78 | 1013.3 |
| 20260507122307 | -5 | 49 | 8.0 | 12.9 | 0.00 | 0.79 | 0.00 | 77 | 1024.2 |
| 20260507121804 | -5 | 25 | 3.2 | 11.3 | 0.00 | 0.79 | 0.00 | 77 | 1013.4 |
| 20260507121304 | -5 | 57 | 8.0 | 12.9 | 0.00 | 0.79 | 0.00 | 80 | 1013.3 |
| 20260507120805 | -5 | 61 | 8.0 | 14.5 | 0.00 | 0.79 | 0.00 | 79 | 1013.3 |
| 20260507120303 | -5 | 69 | 9.7 | 12.9 | 0.00 | 0.79 | 0.00 | 80 | 1013.3 |
| 20260507115307 | -5 | 57 | 8.0 | 14.5 | 0.00 | 0.86 | 0.00 | 79 | 1013.6 |
| 20260507114804 | -5 | 74 | 8.0 | 11.3 | 0.00 | 0.94 | 0.00 | 79 | 1013.3 |
| 20260507114305 | -4 | 54 | 6.4 | 9.7 | 0.00 | 0.94 | 0.00 | 80 | 1013.4 |
| 20260507112805 | -4 | 87 | 6.4 | 14.5 | 0.00 | 0.94 | 0.00 | 78 | 1013.5 |
| 20260507112307 | -5 | 67 | 9.7 | 16.1 | 0.00 | 0.94 | 0.00 | 78 | 1013.4 |
| 20260507111804 | -5 | 40 | 4.8 | 12.9 | 0.00 | 0.94 | 0.00 | 78 | 1013.4 |
| 20260507110805 | -5 | 67 | 9.7 | 12.9 | 0.00 | 0.94 | 0.00 | 79 | 1013.3 |
| 20260507110305 | -5 | 69 | 8.0 | 12.9 | 0.00 | 0.94 | 0.00 | 78 | 1013.2 |
| 20260507105803 | -5 | 58 | 8.0 | 12.9 | 0.00 | 0.94 | 0.00 | 79 | 1013.3 |
| 20260507105306 | -4 | 80 | 3.2 | 9.7 | 0.00 | 0.94 | 0.00 | 77 | 1020.7 |
| 20260507104804 | -4 | 59 | 4.8 | 11.3 | 0.00 | 0.94 | 0.00 | 78 | 1012.9 |
| 20260507104304 | -5 | 68 | 8.0 | 12.9 | 0.00 | 0.94 | 0.00 | 77 | 1013.2 |
| 20260507103805 | -4 | 66 | 9.7 | 14.5 | 0.00 | 0.94 | 0.00 | 77 | 1013.3 |
| 20260507103304 | -4 | 72 | 4.8 | 14.5 | 0.00 | 0.94 | 0.00 | 77 | 1013.2 |
| 20260507102804 | -4 | 74 | 8.0 | 14.5 | 0.00 | 0.94 | 0.00 | 78 | 1013.3 |
| 20260507102306 | -5 | 36 | 8.0 | 11.3 | 0.00 | 0.94 | 0.00 | 78 | 1013.2 |
| 20260507101804 | -4 | 58 | 9.7 | 12.9 | 0.00 | 0.94 | 0.00 | 78 | 1013.3 |
| 20260507101304 | -5 | 63 | 6.4 | 12.9 | 0.00 | 0.94 | 0.00 | 77 | 1013.3 |
| 20260507100804 | -4 | 86 | 8.0 | 12.9 | 0.00 | 0.94 | 0.00 | 78 | 1013.3 |
| 20260507100304 | -5 | 68 | 4.8 | 11.3 | 0.00 | 0.94 | 0.00 | 77 | 1013.3 |
| 20260507095306 | -5 | 43 | 4.8 | 12.9 | 0.00 | 0.94 | 0.00 | 77 | 1018.3 |
| 20260507094804 | -4 | 93 | 4.8 | 12.9 | 0.00 | 0.94 | 0.00 | 78 | 1013.2 |
| 20260507094306 | -5 | 69 | 6.4 | 12.9 | 0.00 | 0.94 | 0.00 | 78 | 1013.3 |
| 20260507093805 | -5 | 71 | 8.0 | 12.9 | 0.00 | 0.94 | 0.00 | 79 | 1021.0 |
| 20260507093307 | -5 | 51 | 8.0 | 12.9 | 0.00 | 0.94 | 0.00 | 77 | 1013.3 |
| 20260507092806 | -5 | 64 | 9.7 | 12.9 | 0.00 | 0.94 | 0.00 | 78 | 1013.2 |
| 20260507092307 | -3 | 68 | 6.4 | 9.7 | 0.00 | 0.94 | 0.00 | 78 | 1021.3 |
| 20260507091306 | -5 | 56 | 8.0 | 12.9 | 0.00 | 0.94 | 0.00 | 76 | 1018.3 |
| 20260507090806 | -5 | 60 | 8.0 | 11.3 | 0.00 | 0.94 | 0.00 | 77 | 1013.2 |
| 20260507090306 | -4 | 50 | 6.4 | 12.9 | 0.00 | 0.94 | 0.00 | 76 | 1013.2 |
| 20260507085306 | -4 | 69 | 3.2 | 14.5 | 0.00 | 0.94 | 0.00 | 75 | 1013.2 |
| 20260507084806 | -3 | 42 | 6.4 | 14.5 | 0.00 | 0.94 | 0.00 | 76 | 1013.2 |
| 20260507084307 | -3 | 51 | 8.0 | 11.3 | 0.00 | 0.94 | 0.00 | 74 | 1013.1 |
| 20260507083806 | -3 | 67 | 4.8 | 9.7 | 0.00 | 0.94 | 0.00 | 75 | 1013.1 |
| 20260507083306 | -3 | 63 | 8.0 | 14.5 | 0.00 | 0.94 | 0.00 | 74 | 1013.3 |
| 20260507082806 | -3 | 46 | 6.4 | 14.5 | 0.00 | 0.94 | 0.00 | 75 | 1013.4 |
| 20260507081806 | -3 | 45 | 9.7 | 14.5 | 0.00 | 0.94 | 0.00 | 75 | 1013.5 |
| 20260507080806 | -3 | 20 | 4.8 | 14.5 | 0.00 | 0.94 | 0.00 | 76 | 1020.2 |
| 20260507075806 | -4 | 62 | 8.0 | 11.3 | 0.00 | 0.94 | 0.00 | 75 | 1023.1 |
| 20260507075307 | -3 | 26 | 4.8 | 12.9 | 0.00 | 0.94 | 0.00 | 75 | 1013.5 |
| 20260507074806 | -3 | 15 | 4.8 | 11.3 | 0.00 | 0.94 | 0.00 | 75 | 1013.6 |
| 20260507074306 | -3 | 46 | 4.8 | 11.3 | 0.00 | 0.94 | 0.00 | 74 | 1013.5 |
| 20260507073806 | -2 | 44 | 3.2 | 9.7 | 0.00 | 0.94 | 0.00 | 74 | 1013.5 |
| 20260507073305 | -3 | 95 | 3.2 | 14.5 | 0.00 | 0.94 | 0.00 | 74 | 1023.5 |
| 20260507072806 | -3 | 53 | 6.4 | 14.5 | 0.00 | 0.94 | 0.00 | 74 | 1013.5 |
| 20260507072308 | -3 | 53 | 8.0 | 11.3 | 0.00 | 0.94 | 0.00 | 74 | 1013.6 |
| 20260507071805 | -3 | 61 | 4.8 | 9.7 | 0.00 | 0.94 | 0.00 | 73 | 1019.1 |
| 20260507071306 | -2 | 60 | 6.4 | 12.9 | 0.00 | 0.94 | 0.00 | 72 | 1013.6 |
| 20260507070806 | -2 | 51 | 9.7 | 12.9 | 0.00 | 0.94 | 0.00 | 70 | 1020.2 |
| 20260507070306 | -2 | 53 | 6.4 | 16.1 | 0.00 | 0.94 | 0.00 | 73 | 1013.5 |
| 20260507065306 | -3 | 73 | 8.0 | 14.5 | 0.00 | 0.94 | 0.00 | 70 | 1013.5 |
| 20260507064806 | -2 | 42 | 9.7 | 14.5 | 0.00 | 0.94 | 0.00 | 71 | 1013.4 |
| 20260507064306 | -2 | 71 | 9.7 | 16.1 | 0.00 | 0.97 | 0.00 | 70 | 1023.8 |
| 20260507063806 | -3 | 57 | 9.7 | 16.1 | 0.00 | 0.97 | 0.00 | 73 | 1013.5 |
| 20260507063306 | -2 | 61 | 11.3 | 12.9 | 0.00 | 0.97 | 0.00 | 70 | 1013.6 |
| 20260507062306 | -2 | 46 | 11.3 | 20.9 | 0.00 | 0.97 | 0.00 | 69 | 1013.4 |
| 20260507061805 | -2 | 57 | 11.3 | 16.1 | 0.00 | 0.97 | 0.00 | 70 | 1013.5 |
| 20260507061306 | -2 | 28 | 11.3 | 20.9 | 0.00 | 0.97 | 0.00 | 72 | 1013.4 |
| 20260507060806 | -2 | 59 | 9.7 | 20.9 | 0.00 | 0.97 | 0.00 | 70 | 1013.5 |
| 20260507060306 | -2 | 60 | 11.3 | 16.1 | 0.00 | 0.97 | 0.00 | 71 | 1013.6 |
| 20260507055805 | 1 | 57 | 8.0 | 14.5 | 0.00 | 0.97 | 0.00 | 71 | 1013.6 |
| 20260507055306 | -2 | 62 | 8.0 | 12.9 | 0.00 | 0.99 | 0.00 | 72 | 1013.5 |
| 20260507054806 | 1 | 56 | 8.0 | 11.3 | 0.00 | 0.99 | 0.00 | 70 | 1013.4 |